Ride Results

Bungawalbyn (10-04-2005)
Ride distance: 82.0 km

Outcomes - Bungawalbyn (10-04-2005)
Division No. of Entries Retired / DNE Completed Withdrawn Ineligible V/O Percentage Completed
HW 22 - 9 1 - 12 40.91%
MW 49 - 35 1 - 13 71.43%
LW 19 - 13 1 - 5 68.42%
JN 10 - 7 - - 3 70.00%
Totals 100 - 64 3 - 33 64.00%
Results - Bungawalbyn (10-04-2005)
No. Rider Horse Place Time Leg Speeds Total
Km/Hr
H/R bpm
Heavyweight
239 Davin Coughran Sha'Almalih 1 5:11:00 15.3, 16.3 15.82 29, 40, 43 (Avg:41)
237 John Simpson Charaway Chaivu 2 5:37:00 16.3, 13.1 14.60 34, 37, 42 (Avg:39)
274 Maurice Crombie Te Auri Zahir 3 6:27:00 13.3, 12.1 12.71 37, 50, 60 (Avg:55)
345 Tony Matthews Dunbar Lexus 4 6:55:00 13.0, 10.8 11.86 40, 44, 58 (Avg:51)
248 Marylou Locke Ally 5 7:13:00 14.0, 9.4 11.36 37, 49, 59 (Avg:54)
325 Craig Ellison Rowallan Dark Lad 6 7:27:00 13.1, 9.3 11.01 31, 36, 38 (Avg:37)
231 John Davidson Ennovyar Dancing Girl 7 7:52:00 10.6, 10.1 10.42 34, 49, 51 (Avg:50)
275 Richard Standfield Kalgoolie Gold 8 7:57:00 10.4, 10.1 10.31 36, 42, 56 (Avg:49)
280 Damian Todd Woodbourne Harold 9 8:19:00 9.8, 9.8 9.86 34, 45, 54 (Avg:49)
200 Ray Adams Spellmaster Lame L2 0:00:00 12.9, 10.6 - 37, 45, 54 (Avg:49)
249 Kacey Childs Follyfoot Metabolics severe L2 0:00:00 17.3, 11.8 - 37, 54, 58 (Avg:56)
316 Kristan Kershaw Gwaihir Lalique Heart Rate L2 0:00:00 13.9, 13.1 - 35, 44, 65 (Avg:54)
308 Adam Mellers Murland Park Mahrred Heart Rate L2 0:00:00 10.9, 9.9 - 35, 54, 68 (Avg:61)
216 David Anderson (DAD) Hillbrae Kaszan Lame L1 0:00:00 11.1 - 40, 40 (Avg:40)
317 Arch Felton Bint Shah Dara Lame L1 0:00:00 13.0 - 34, 52 (Avg:52)
303 Dennis Friedrichs Marja Nile Shaz Heart Rate L1 0:00:00 10.8 - 41, 60 (Avg:60)
302 David Grove Eskimo Warrior Heart Rate L1 0:00:00 12.8 - 29, 70 (Avg:70)
289 Ron Haigh Wesswood Rock Moss Heart Rate L1 0:00:00 16.3 - 31, 66 (Avg:66)
220 Stephen Harris Kasban Pierre Heart Rate L1 0:00:00 12.2 - 34, 76 (Avg:76)
209 Joyce McGowan Tallaroon Crystal Rose Heart Rate L1 0:00:00 11.1 - 50, 69 (Avg:69)
332 Selwyn Nix Dunbar Mahadik Widthdrawn L1 0:00:00 - - 29, 42 (Avg:42)
201 Eric Tuennecke Currowan Rahnase Lame L1 0:00:00 15.3 - 38, 50 (Avg:50)
Middleweight
330 Bill Ward Flashing Ra 1 3:47:00 21.3, 22.0 21.67 27, 38, 42 (Avg:40)
350 Joyce Corbett Aquarius Park Chantilly Lace 2 4:59:00 17.3, 15.5 16.45 37, 39, 43 (Avg:41)
215 Robin Van der Wegen Captain's Creek Rupert 3 5:05:00 15.3, 17.0 16.13 36, 42, 48 (Avg:45)
307 Neil Hoy Cherox Kariim 4 5:23:00 17.1, 13.6 15.23 38, 45, 51 (Avg:48)
300 Narelle Childs Arsley House Eryldene 5 5:47:00 17.3, 11.8 14.18 32, 43, 55 (Avg:49)
283 Linda Meredith Dunwingeri Nova 6 5:50:00 17.1, 11.8 14.06 35, 48, 52 (Avg:50)
230 Jane Davidson Nangana Madoukhar 7 5:54:00 14.4, 13.3 13.90 35, 47, 59 (Avg:53)
206 Alicia Henry Allamir Silver Shadow 8 5:58:00 15.1, 12.4 13.74 40, 40, 52 (Avg:46)
290 Rachel Stephens Rustan Raahbu-Klan 9 6:02:00 13.9, 13.1 13.59 34, 54, 52 (Avg:53)
311 Jeff Trevarthen Red Zane 10 6:03:00 13.6, 13.4 13.55 37, 48, 60 (Avg:54)
312 Tanya Zanow Die Kinder Kashah 10 6:03:00 13.6, 13.4 13.55 29, 39, 45 (Avg:42)
349 Lesley Nancarrow Zenith Park Chico Niveladora 12 6:04:00 13.9, 13.0 13.52 38, 44, 50 (Avg:47)
227 Bruce Seaward Monterra Ibn Silver Magic 13 6:05:00 13.3, 13.6 13.48 35, 40, 60 (Avg:50)
272 Sally Viney Cameo Sleeping Beauty 14 6:07:00 15.6, 11.6 13.41 32, 45, 58 (Avg:51)
286 Allan Standfield Myrimbah Playboy 15 6:12:00 13.8, 12.6 13.23 38, 47, 53 (Avg:50)
234 Derryn Nix Dunbar El Maestro 16 6:18:00 12.7, 13.2 13.02 51, 46, 52 (Avg:49)
306 Tad Cossins Jaytee Silhouette 17 6:19:00 13.6, 12.3 12.98 34, 38, 40 (Avg:39)
204 Trent Brickley Sukis Keeper 18 6:34:00 13.1, 11.8 12.49 32, 41, 47 (Avg:44)
222 Maureen Feltham Malali 19 6:40:00 12.1, 12.4 12.30 32, 39, 50 (Avg:44)
233 Megan Matters Tinderry Vista Armistice 19 6:40:00 12.1, 12.4 12.30 37, 40, 58 (Avg:49)
344 Billie Barron Royal Bella 21 6:47:00 13.0, 11.2 12.09 38, 47, 50 (Avg:48)
346 Wayne McKinnon Dunbar Aramis 22 6:55:00 13.0, 10.8 11.86 46, 42, 43 (Avg:42)
202 Elaine May Caesar 23 6:59:00 12.1, 11.3 11.74 37, 49, 60 (Avg:54)
247 Bob Locke Aratahnes Prelude 24 7:13:00 14.0, 9.4 11.36 28, 39, 52 (Avg:45)
236 Wendy Smith Midu Jacelle 25 7:22:00 13.0, 9.6 11.13 40, 44, 48 (Avg:46)
319 Ronalt Kimmich Boaz 26 7:27:00 13.0, 9.4 11.01 42, 45, 49 (Avg:47)
323 Elsie Newsome Zaccheus 26 7:27:00 13.0, 9.4 11.01 34, 48, 45 (Avg:46)
243 Michael Combe Aloha Grace 28 7:32:00 11.3, 10.4 10.88 38, 42, 49 (Avg:45)
244 Tulsi Combe Zara Farm Chandalii 28 7:32:00 11.3, 10.4 10.88 33, 41, 48 (Avg:44)
219 Meagan Makejev Desert Sand 28 7:32:00 11.3, 10.4 10.88 36, 45, 55 (Avg:50)
210 Peter Kelly Razorback Reflection 31 7:35:00 12.1, 9.6 10.81 39, 45, 44 (Avg:44)
309 Ben Caslick Marja Malibu 32 7:50:00 10.9, 9.9 10.47 42, 42, 50 (Avg:46)
208 Ken Delzoppo Riverwood Park Star of David 33 7:52:00 12.2, 9.0 10.42 33, 37, 52 (Avg:44)
229 Alan Roberts Omar 33 7:52:00 10.6, 10.1 10.42 35, 52, 52 (Avg:52)
271 Judith Burton Woodbourne Ajaala 35 7:57:00 11.8, 9.0 10.31 35, 46, 50 (Avg:48)
211 Judy Battams Marja Shyella Desert Dream Back L2 0:00:00 21.3, 22.0 - 31, 47, 57 (Avg:52)
217 Angela Georgopoulos El Rebel Stimulator Heart Rate L2 0:00:00 13.0, 10.8 - 44, 50, 62 (Avg:56)
338 Matthew Kennedy Prince Kaschial Lame L2 0:00:00 12.9, 10.6 - 62, 40, 50 (Avg:45)
310 Marion Lengronne Sundust Frisco Heart Rate L2 0:00:00 17.2, 10.2 - 32, 46, 66 (Avg:56)
270 Yvonne Mears Djibaiti Heart Rate L2 0:00:00 13.6, 11.1 - 40, 48, 69 (Avg:58)
287 Pat Standfield Rothlynne Hassan Heart Rate L2 0:00:00 17.3, 11.8 - 34, 48, 70 (Avg:59)
238 Tony Standfield Stanpark RH Lame L2 0:00:00 15.3, 16.3 - 32, 42, 57 (Avg:49)
221 Mellissa Stubbs Dunwingeri Saahma Heart Rate L2 0:00:00 12.2, 11.2 - 38, 48, 68 (Avg:58)
225 Damien Keys Jerry Jeremiah Heart Rate L1 0:00:00 15.0 - 35, 56 (Avg:56)
347 Di Kupsch Koora Ashibka Lame L1 0:00:00 11.0 - 37, 51 (Avg:51)
324 Jodie Salinas Castlebar Makers Mark Lame L1 0:00:00 13.0 - 32, 44 (Avg:44)
218 Jean Taylor Nerim Widthdrawn L1 0:00:00 - - 34, 47 (Avg:47)
326 Jan Tyrrell Ghandi Lame L1 0:00:00 15.6 - 32, 42 (Avg:42)
278 Dean Chamberlain Silver Mistral Metabolics moderate P/R 0:00:00 - - -
Lightweight
293 Vicki Gaillard Bahren Mangueiru Maharshi 1 4:59:00 18.0, 15.0 16.45 42, 47, 54 (Avg:50)
241 Chloe Lyons Stanpark Strike 2 5:11:00 15.3, 16.3 15.82 32, 39, 58 (Avg:48)
279 Annette Chamberlain Sir Ninian 3 5:22:00 18.0, 13.1 15.28 31, 38, 48 (Avg:43)
277 Robyn Brazel Thomas 4 5:50:00 15.1, 13.0 14.06 37, 43, 52 (Avg:47)
285 Jennifer Annetts Churinga Witezan's Dream 5 6:04:00 13.0, 14.0 13.52 35, 51, 50 (Avg:50)
305 Sasha Laws-King Tubbarubba Cheval 5 6:04:00 13.0, 14.0 13.52 37, 48, 53 (Avg:50)
314 Carolyn Kent Sultans Dream 7 6:08:00 14.0, 12.6 13.37 36, 44, 55 (Avg:49)
223 Anne Criner Zara Farm Ayesha 8 6:40:00 11.7, 12.9 12.30 47, 49, 52 (Avg:50)
213 Jan Goodwin Lucy 9 7:22:00 12.2, 10.1 11.13 33, 41, 51 (Avg:46)
313 Pip Lillyman Meadowbrook Rhapsody 10 7:40:00 11.3, 10.0 10.70 36, 42, 47 (Avg:44)
318 Karen Lee Ramalea Tahini 11 7:49:00 11.0, 9.9 10.49 36, 41, 48 (Avg:44)
245 Jackie Parsons Mercury 12 7:57:00 10.8, 9.8 10.31 34, 44, 49 (Avg:46)
282 Julia Morgillo Woodbourne Kaseem 13 8:19:00 9.8, 9.8 9.86 36, 45, 52 (Avg:48)
235 Melodie Churchill Shahreena 'Al Amira Lame L2 0:00:00 21.3, 16.2 - 29, 46, 74 (Avg:60)
273 Bridgette Crombie Rombando Tendi Widthdrawn L2 0:00:00 - - 36, 46, 52 (Avg:49)
226 Leah Felton Mahogany Reflection Heart Rate L2 0:00:00 13.6, 12.8 - 37, 49, 61 (Avg:55)
224 Robyn McIntosh-Shoesmith Millers Park Absolute Heart Rate L2 0:00:00 11.6, 13.0 - 30, 48, 70 (Avg:59)
228 Kylie Reid Cherox Magnum Lame L2 0:00:00 13.3, 13.6 - 33, 40, 50 (Avg:45)
288 Madelyn Herwig Bahrein Shilo Heart Rate L1 0:00:00 11.6 - 36, 60 (Avg:60)
Junior
291 Nina Jackson Bahrein Hypnotic 1 6:02:00 13.9, 13.1 13.59 47, 42, 51 (Avg:46)
315 Laura Finlayson Toralea Khalio 2 7:03:00 11.7, 11.4 11.63 28, 37, 42 (Avg:39)
246 Rhys Rayner Stanpark David 2 7:03:00 11.7, 11.4 11.63 38, 48, 55 (Avg:51)
320 Tasha Jeremy Midu Ariel 4 7:27:00 13.1, 9.3 11.01 37, 40, 54 (Avg:47)
322 Jasmine Shields Castlebar Sobia 4 7:27:00 13.0, 9.4 11.01 32, 37, 37 (Avg:37)
240 Nathan Goebel Stanpark Kilara 6 7:59:00 10.4, 10.0 10.27 32, 46, 48 (Avg:47)
242 Aime Newton Stanpark Simone 6 7:59:00 10.4, 10.0 10.27 31, 35, 42 (Avg:38)
214 Terri Anderson Shanti Lame L2 0:00:00 15.3, 17.0 - 32, 35, 60 (Avg:47)
276 Lucas Hyland Shamrock Hill Shahtihr Heart Rate L2 0:00:00 10.4, 10.1 - 34, 44, 70 (Avg:57)
348 Shay Corbett Murland Park Muriah Lame L1 0:00:00 13.9 - 41, 42 (Avg:42)